Main page
METAR-TAF:

METAR-TAF

Airports :

Treviso Airport

Treviso, Italy

latitude: 45-39N, longitude: 012-11E, elevation: 18 m

Current weather observation

The report was made 24 minutes ago, at 23:50 UTC
Wind 3 kt from the North
Temperature 8°C
Humidity 100%
Pressure 1023 hPa
Visibility: 2100 m
mist

METAR: LIPH 172350Z AUTO 35003KT 2100 BR OVC011/// 08/08 Q1023

Time: 01:14 (00:14 UTC)

Forecast

The report was made 1 hour and 14 minutes ago, at 23:00 UTC
Forecast valid from 18 at 00 UTC to 18 at 24 UTC
Wind 5 kt from variable directions
Visibility: 3000 m
Broken clouds at a height of 1000 ft
mist
Temporary
from 18 at 00 UTC to 18 at 06 UTC
Visibility: 0300 m
Broken clouds at a height of 300 ft
fog
Becoming
from 18 at 08 UTC to 18 at 10 UTC
Visibility: 6000 m

TAF: LIPH 172300Z 1800/1824 VRB05KT 3000 BR BKN010 TEMPO 1800/1806 0300 FG BKN003 BECMG 1808/1810 6000

Weather observations and forecasts of more than 4000 airports (METAR and TAF reports).

The available stations are represented by yellow and red dots on the map.

Hover mouse over dot to see the name of the station.

Then click to see weather observations and forecasts.

To change the map : click on the green buttons with a black cross to zoom in, on the green button with a dash to zoom out, or on the green arrows for adjacent maps.


METAR-TAF: